sensor_id;sensor_type;location;lat;lon;timestamp;pressure;altitude;pressure_sealevel;temperature;humidity
50434;BME280;36361;38.954;-9.002;2023-05-09T00:00:42;101496.50;;;21.01;100.00
50434;BME280;36361;38.954;-9.002;2023-05-09T00:01:42;101491.78;;;21.02;100.00
50434;BME280;36361;38.954;-9.002;2023-05-09T00:02:45;101493.97;;;20.95;100.00
50434;BME280;36361;38.954;-9.002;2023-05-09T00:03:46;101492.09;;;20.68;100.00
50434;BME280;36361;38.954;-9.002;2023-05-09T00:04:46;101489.34;;;20.20;100.00
50434;BME280;36361;38.954;-9.002;2023-05-09T00:05:47;101490.22;;;20.47;100.00
50434;BME280;36361;38.954;-9.002;2023-05-09T00:06:48;101493.63;;;20.32;100.00
50434;BME280;36361;38.954;-9.002;2023-05-09T00:07:49;101486.91;;;20.23;100.00
50434;BME280;36361;38.954;-9.002;2023-05-09T00:08:50;101498.09;;;20.11;100.00
50434;BME280;36361;38.954;-9.002;2023-05-09T00:09:50;101487.22;;;20.27;100.00
50434;BME280;36361;38.954;-9.002;2023-05-09T00:10:51;101490.31;;;20.57;100.00
50434;BME280;36361;38.954;-9.002;2023-05-09T00:11:53;101481.31;;;20.72;100.00
50434;BME280;36361;38.954;-9.002;2023-05-09T00:12:53;101487.34;;;20.96;100.00
50434;BME280;36361;38.954;-9.002;2023-05-09T00:13:54;101480.41;;;20.61;100.00
50434;BME280;36361;38.954;-9.002;2023-05-09T00:14:58;101479.84;;;20.59;100.00
50434;BME280;36361;38.954;-9.002;2023-05-09T00:15:59;101488.75;;;20.39;100.00
50434;BME280;36361;38.954;-9.002;2023-05-09T00:17:00;101489.84;;;19.68;100.00
50434;BME280;36361;38.954;-9.002;2023-05-09T00:18:01;101484.75;;;19.81;100.00
50434;BME280;36361;38.954;-9.002;2023-05-09T00:19:02;101493.63;;;19.62;100.00
50434;BME280;36361;38.954;-9.002;2023-05-09T00:20:05;101489.16;;;19.39;100.00
50434;BME280;36361;38.954;-9.002;2023-05-09T00:21:11;101477.19;;;19.33;100.00
50434;BME280;36361;38.954;-9.002;2023-05-09T00:22:12;101477.75;;;19.35;100.00
50434;BME280;36361;38.954;-9.002;2023-05-09T00:23:12;101480.19;;;19.92;100.00
50434;BME280;36361;38.954;-9.002;2023-05-09T00:24:13;101482.34;;;19.85;100.00
50434;BME280;36361;38.954;-9.002;2023-05-09T00:25:14;101488.44;;;19.48;100.00
50434;BME280;36361;38.954;-9.002;2023-05-09T00:26:15;101482.94;;;19.48;100.00
50434;BME280;36361;38.954;-9.002;2023-05-09T00:27:17;101474.44;;;19.94;100.00
50434;BME280;36361;38.954;-9.002;2023-05-09T00:28:17;101493.38;;;19.85;100.00
50434;BME280;36361;38.954;-9.002;2023-05-09T00:29:19;101486.56;;;19.71;100.00
50434;BME280;36361;38.954;-9.002;2023-05-09T00:30:20;101483.09;;;19.58;100.00
50434;BME280;36361;38.954;-9.002;2023-05-09T00:31:21;101481.47;;;19.24;100.00
50434;BME280;36361;38.954;-9.002;2023-05-09T00:32:21;101485.09;;;19.46;100.00
50434;BME280;36361;38.954;-9.002;2023-05-09T00:33:22;101481.63;;;19.34;100.00
50434;BME280;36361;38.954;-9.002;2023-05-09T00:34:26;101476.84;;;19.90;100.00
50434;BME280;36361;38.954;-9.002;2023-05-09T00:35:27;101477.13;;;19.88;100.00
50434;BME280;36361;38.954;-9.002;2023-05-09T00:36:27;101473.66;;;19.76;100.00
50434;BME280;36361;38.954;-9.002;2023-05-09T00:37:29;101478.19;;;19.66;100.00
50434;BME280;36361;38.954;-9.002;2023-05-09T00:38:30;101483.31;;;19.01;100.00
50434;BME280;36361;38.954;-9.002;2023-05-09T00:39:31;101475.25;;;18.78;100.00
50434;BME280;36361;38.954;-9.002;2023-05-09T00:40:31;101470.66;;;18.84;100.00
50434;BME280;36361;38.954;-9.002;2023-05-09T00:41:32;101474.78;;;19.20;100.00
50434;BME280;36361;38.954;-9.002;2023-05-09T00:42:33;101477.25;;;19.38;100.00
50434;BME280;36361;38.954;-9.002;2023-05-09T00:43:34;101478.94;;;19.39;100.00
50434;BME280;36361;38.954;-9.002;2023-05-09T00:44:35;101476.53;;;19.26;100.00
50434;BME280;36361;38.954;-9.002;2023-05-09T00:45:36;101479.44;;;19.36;100.00
50434;BME280;36361;38.954;-9.002;2023-05-09T00:46:38;101487.22;;;19.39;100.00
50434;BME280;36361;38.954;-9.002;2023-05-09T00:47:39;101481.56;;;19.51;100.00
50434;BME280;36361;38.954;-9.002;2023-05-09T00:48:40;101492.47;;;19.57;100.00
50434;BME280;36361;38.954;-9.002;2023-05-09T00:49:45;101484.97;;;20.24;100.00
50434;BME280;36361;38.954;-9.002;2023-05-09T00:50:46;101476.81;;;20.39;100.00
50434;BME280;36361;38.954;-9.002;2023-05-09T00:51:54;101479.75;;;20.49;100.00
50434;BME280;36361;38.954;-9.002;2023-05-09T00:53:01;101480.44;;;20.39;100.00
50434;BME280;36361;38.954;-9.002;2023-05-09T00:54:04;101480.78;;;20.43;100.00
50434;BME280;36361;38.954;-9.002;2023-05-09T00:55:06;101486.47;;;20.58;100.00
50434;BME280;36361;38.954;-9.002;2023-05-09T00:56:15;101477.88;;;20.33;100.00
50434;BME280;36361;38.954;-9.002;2023-05-09T00:57:16;101480.25;;;19.97;100.00
50434;BME280;36361;38.954;-9.002;2023-05-09T00:58:17;101489.31;;;19.71;100.00
50434;BME280;36361;38.954;-9.002;2023-05-09T00:59:19;101480.78;;;19.94;100.00
50434;BME280;36361;38.954;-9.002;2023-05-09T01:00:20;101473.09;;;20.01;100.00
50434;BME280;36361;38.954;-9.002;2023-05-09T01:01:21;101470.72;;;20.10;100.00
50434;BME280;36361;38.954;-9.002;2023-05-09T01:02:22;101481.03;;;19.93;100.00
50434;BME280;36361;38.954;-9.002;2023-05-09T01:03:23;101476.88;;;19.68;100.00
50434;BME280;36361;38.954;-9.002;2023-05-09T01:04:24;101484.13;;;19.36;100.00
50434;BME280;36361;38.954;-9.002;2023-05-09T01:05:29;101483.00;;;19.15;100.00
50434;BME280;36361;38.954;-9.002;2023-05-09T01:06:57;101483.81;;;19.32;100.00
50434;BME280;36361;38.954;-9.002;2023-05-09T01:08:11;101486.25;;;19.50;100.00
50434;BME280;36361;38.954;-9.002;2023-05-09T01:09:21;101484.28;;;19.29;100.00
50434;BME280;36361;38.954;-9.002;2023-05-09T01:10:34;101481.91;;;19.16;100.00
50434;BME280;36361;38.954;-9.002;2023-05-09T01:11:45;101487.66;;;19.31;100.00
50434;BME280;36361;38.954;-9.002;2023-05-09T01:13:04;101480.28;;;19.20;100.00
50434;BME280;36361;38.954;-9.002;2023-05-09T01:18:48;101473.06;;;19.74;100.00
50434;BME280;36361;38.954;-9.002;2023-05-09T01:20:17;101469.22;;;19.97;100.00
50434;BME280;36361;38.954;-9.002;2023-05-09T01:21:28;101467.84;;;20.00;100.00
50434;BME280;36361;38.954;-9.002;2023-05-09T01:22:35;101465.03;;;19.73;100.00
50434;BME280;36361;38.954;-9.002;2023-05-09T01:26:03;101459.31;;;20.28;100.00
50434;BME280;36361;38.954;-9.002;2023-05-09T01:29:59;101463.88;;;20.12;100.00
50434;BME280;36361;38.954;-9.002;2023-05-09T01:31:03;101471.63;;;20.42;100.00
50434;BME280;36361;38.954;-9.002;2023-05-09T01:32:09;101462.25;;;20.76;100.00
50434;BME280;36361;38.954;-9.002;2023-05-09T01:33:15;101464.16;;;20.70;100.00
50434;BME280;36361;38.954;-9.002;2023-05-09T01:34:17;101473.22;;;20.60;100.00
50434;BME280;36361;38.954;-9.002;2023-05-09T01:35:20;101461.09;;;20.12;100.00
50434;BME280;36361;38.954;-9.002;2023-05-09T01:36:24;101476.59;;;20.13;100.00
50434;BME280;36361;38.954;-9.002;2023-05-09T01:37:31;101467.22;;;20.20;100.00
50434;BME280;36361;38.954;-9.002;2023-05-09T01:38:33;101460.34;;;20.44;100.00
50434;BME280;36361;38.954;-9.002;2023-05-09T01:39:37;101465.72;;;20.34;100.00
50434;BME280;36361;38.954;-9.002;2023-05-09T01:40:40;101466.38;;;20.41;100.00
50434;BME280;36361;38.954;-9.002;2023-05-09T01:41:42;101475.16;;;20.11;100.00
50434;BME280;36361;38.954;-9.002;2023-05-09T01:42:56;101462.38;;;20.05;100.00
50434;BME280;36361;38.954;-9.002;2023-05-09T01:43:59;101469.53;;;19.79;100.00
50434;BME280;36361;38.954;-9.002;2023-05-09T01:45:03;101473.94;;;20.02;100.00
50434;BME280;36361;38.954;-9.002;2023-05-09T01:46:05;101461.69;;;20.20;100.00
50434;BME280;36361;38.954;-9.002;2023-05-09T01:47:08;101462.13;;;20.33;100.00
50434;BME280;36361;38.954;-9.002;2023-05-09T01:48:09;101467.19;;;20.14;100.00
50434;BME280;36361;38.954;-9.002;2023-05-09T01:49:12;101470.09;;;20.30;100.00
50434;BME280;36361;38.954;-9.002;2023-05-09T01:50:14;101475.59;;;20.25;100.00
50434;BME280;36361;38.954;-9.002;2023-05-09T01:51:18;101473.00;;;19.69;100.00
50434;BME280;36361;38.954;-9.002;2023-05-09T01:52:20;101473.28;;;19.68;100.00
50434;BME280;36361;38.954;-9.002;2023-05-09T01:53:24;101465.59;;;19.75;100.00
50434;BME280;36361;38.954;-9.002;2023-05-09T01:54:31;101467.72;;;19.29;100.00
50434;BME280;36361;38.954;-9.002;2023-05-09T01:55:34;101460.19;;;19.58;100.00
50434;BME280;36361;38.954;-9.002;2023-05-09T01:56:36;101467.50;;;19.52;100.00
50434;BME280;36361;38.954;-9.002;2023-05-09T01:57:42;101471.50;;;20.05;100.00
50434;BME280;36361;38.954;-9.002;2023-05-09T01:58:45;101472.13;;;19.85;100.00
50434;BME280;36361;38.954;-9.002;2023-05-09T01:59:48;101467.91;;;20.05;100.00
50434;BME280;36361;38.954;-9.002;2023-05-09T02:00:49;101472.63;;;19.82;100.00
50434;BME280;36361;38.954;-9.002;2023-05-09T02:01:54;101470.13;;;20.03;100.00
50434;BME280;36361;38.954;-9.002;2023-05-09T02:02:56;101471.72;;;19.99;100.00
50434;BME280;36361;38.954;-9.002;2023-05-09T02:03:58;101473.38;;;20.00;100.00
50434;BME280;36361;38.954;-9.002;2023-05-09T02:04:59;101465.34;;;19.98;100.00
50434;BME280;36361;38.954;-9.002;2023-05-09T02:06:02;101466.44;;;20.46;100.00
50434;BME280;36361;38.954;-9.002;2023-05-09T02:07:05;101463.81;;;20.61;100.00
50434;BME280;36361;38.954;-9.002;2023-05-09T02:08:07;101462.06;;;20.50;100.00
50434;BME280;36361;38.954;-9.002;2023-05-09T02:09:08;101458.34;;;20.12;100.00
50434;BME280;36361;38.954;-9.002;2023-05-09T02:10:09;101461.13;;;19.69;100.00
50434;BME280;36361;38.954;-9.002;2023-05-09T02:11:11;101468.03;;;19.93;100.00
50434;BME280;36361;38.954;-9.002;2023-05-09T02:12:11;101458.28;;;20.07;100.00
50434;BME280;36361;38.954;-9.002;2023-05-09T02:13:12;101461.78;;;19.76;100.00
50434;BME280;36361;38.954;-9.002;2023-05-09T02:14:13;101460.59;;;19.72;100.00
50434;BME280;36361;38.954;-9.002;2023-05-09T02:15:14;101460.69;;;19.77;100.00
50434;BME280;36361;38.954;-9.002;2023-05-09T02:16:15;101455.56;;;20.39;100.00
50434;BME280;36361;38.954;-9.002;2023-05-09T02:17:16;101454.50;;;20.18;100.00
50434;BME280;36361;38.954;-9.002;2023-05-09T02:18:22;101460.50;;;20.10;100.00
50434;BME280;36361;38.954;-9.002;2023-05-09T02:19:23;101462.66;;;20.03;100.00
50434;BME280;36361;38.954;-9.002;2023-05-09T02:20:24;101459.72;;;20.42;100.00
50434;BME280;36361;38.954;-9.002;2023-05-09T02:21:25;101457.13;;;20.57;100.00
50434;BME280;36361;38.954;-9.002;2023-05-09T02:22:29;101463.97;;;20.82;100.00
50434;BME280;36361;38.954;-9.002;2023-05-09T02:23:30;101455.94;;;20.80;100.00
50434;BME280;36361;38.954;-9.002;2023-05-09T02:24:32;101455.78;;;20.97;100.00
50434;BME280;36361;38.954;-9.002;2023-05-09T02:25:33;101464.22;;;21.12;100.00
50434;BME280;36361;38.954;-9.002;2023-05-09T02:26:34;101455.25;;;20.95;100.00
50434;BME280;36361;38.954;-9.002;2023-05-09T02:27:37;101455.13;;;20.80;100.00
50434;BME280;36361;38.954;-9.002;2023-05-09T02:28:38;101458.41;;;21.19;100.00
50434;BME280;36361;38.954;-9.002;2023-05-09T02:29:44;101456.91;;;20.96;100.00
50434;BME280;36361;38.954;-9.002;2023-05-09T02:30:46;101451.84;;;20.88;100.00
50434;BME280;36361;38.954;-9.002;2023-05-09T02:31:47;101453.44;;;20.79;100.00
50434;BME280;36361;38.954;-9.002;2023-05-09T02:32:54;101448.53;;;20.86;100.00
50434;BME280;36361;38.954;-9.002;2023-05-09T02:33:56;101456.41;;;20.67;100.00
50434;BME280;36361;38.954;-9.002;2023-05-09T02:34:58;101467.78;;;20.43;100.00
50434;BME280;36361;38.954;-9.002;2023-05-09T02:36:00;101456.91;;;20.37;100.00
50434;BME280;36361;38.954;-9.002;2023-05-09T02:37:02;101461.53;;;20.53;100.00
50434;BME280;36361;38.954;-9.002;2023-05-09T02:38:03;101457.75;;;20.64;100.00
50434;BME280;36361;38.954;-9.002;2023-05-09T02:39:04;101461.69;;;20.73;100.00
50434;BME280;36361;38.954;-9.002;2023-05-09T02:40:06;101454.56;;;20.83;100.00
50434;BME280;36361;38.954;-9.002;2023-05-09T02:41:12;101465.72;;;20.93;100.00
50434;BME280;36361;38.954;-9.002;2023-05-09T02:42:18;101457.78;;;20.69;100.00
50434;BME280;36361;38.954;-9.002;2023-05-09T02:43:20;101457.59;;;20.76;100.00
50434;BME280;36361;38.954;-9.002;2023-05-09T02:44:22;101451.34;;;20.32;100.00
50434;BME280;36361;38.954;-9.002;2023-05-09T02:45:23;101457.16;;;20.35;100.00
50434;BME280;36361;38.954;-9.002;2023-05-09T02:46:24;101458.19;;;20.51;100.00
50434;BME280;36361;38.954;-9.002;2023-05-09T02:47:25;101460.97;;;20.56;100.00
50434;BME280;36361;38.954;-9.002;2023-05-09T02:48:26;101455.53;;;20.66;100.00
50434;BME280;36361;38.954;-9.002;2023-05-09T02:49:27;101459.00;;;20.84;100.00
50434;BME280;36361;38.954;-9.002;2023-05-09T02:50:27;101450.88;;;20.67;100.00
50434;BME280;36361;38.954;-9.002;2023-05-09T02:51:28;101468.28;;;20.67;100.00
50434;BME280;36361;38.954;-9.002;2023-05-09T02:52:29;101460.59;;;20.74;100.00
50434;BME280;36361;38.954;-9.002;2023-05-09T02:53:30;101455.59;;;20.71;100.00
50434;BME280;36361;38.954;-9.002;2023-05-09T02:54:30;101462.25;;;20.43;100.00
50434;BME280;36361;38.954;-9.002;2023-05-09T02:55:31;101460.97;;;20.56;100.00
50434;BME280;36361;38.954;-9.002;2023-05-09T02:56:32;101458.91;;;20.68;100.00
50434;BME280;36361;38.954;-9.002;2023-05-09T02:57:33;101461.69;;;20.73;100.00
50434;BME280;36361;38.954;-9.002;2023-05-09T02:58:33;101450.63;;;20.73;100.00
50434;BME280;36361;38.954;-9.002;2023-05-09T02:59:37;101458.34;;;20.71;100.00
50434;BME280;36361;38.954;-9.002;2023-05-09T03:00:38;101457.47;;;20.66;100.00
50434;BME280;36361;38.954;-9.002;2023-05-09T03:01:39;101457.75;;;20.64;100.00
50434;BME280;36361;38.954;-9.002;2023-05-09T03:02:42;101459.59;;;20.86;100.00
50434;BME280;36361;38.954;-9.002;2023-05-09T03:03:49;101450.63;;;20.73;100.00
50434;BME280;36361;38.954;-9.002;2023-05-09T03:04:52;101459.31;;;20.55;100.00
50434;BME280;36361;38.954;-9.002;2023-05-09T03:05:53;101461.88;;;20.35;100.00
50434;BME280;36361;38.954;-9.002;2023-05-09T03:06:53;101458.81;;;20.58;100.00
50434;BME280;36361;38.954;-9.002;2023-05-09T03:07:55;101458.06;;;20.41;100.00
50434;BME280;36361;38.954;-9.002;2023-05-09T03:08:56;101463.91;;;20.17;100.00
50434;BME280;36361;38.954;-9.002;2023-05-09T03:09:58;101459.09;;;20.35;100.00
50434;BME280;36361;38.954;-9.002;2023-05-09T03:10:59;101460.41;;;20.49;100.00
50434;BME280;36361;38.954;-9.002;2023-05-09T03:12:00;101452.41;;;20.53;100.00
50434;BME280;36361;38.954;-9.002;2023-05-09T03:13:00;101458.28;;;20.61;100.00
50434;BME280;36361;38.954;-9.002;2023-05-09T03:14:02;101456.53;;;20.28;100.00
50434;BME280;36361;38.954;-9.002;2023-05-09T03:15:06;101463.78;;;20.07;100.00
50434;BME280;36361;38.954;-9.002;2023-05-09T03:16:07;101468.03;;;19.93;100.00
50434;BME280;36361;38.954;-9.002;2023-05-09T03:17:07;101464.44;;;20.14;100.00
50434;BME280;36361;38.954;-9.002;2023-05-09T03:18:09;101467.66;;;20.33;100.00
50434;BME280;36361;38.954;-9.002;2023-05-09T03:19:14;101457.63;;;20.49;100.00
50434;BME280;36361;38.954;-9.002;2023-05-09T03:20:15;101465.75;;;20.39;100.00
50434;BME280;36361;38.954;-9.002;2023-05-09T03:21:17;101463.69;;;20.24;100.00
50434;BME280;36361;38.954;-9.002;2023-05-09T03:22:18;101459.94;;;20.62;100.00
50434;BME280;36361;38.954;-9.002;2023-05-09T03:23:30;101458.28;;;20.98;100.00
50434;BME280;36361;38.954;-9.002;2023-05-09T03:24:31;101465.81;;;21.03;100.00
50434;BME280;36361;38.954;-9.002;2023-05-09T03:25:31;101466.97;;;21.12;100.00
50434;BME280;36361;38.954;-9.002;2023-05-09T03:26:33;101466.56;;;21.31;100.00
50434;BME280;36361;38.954;-9.002;2023-05-09T03:27:36;101470.06;;;21.21;100.00
50434;BME280;36361;38.954;-9.002;2023-05-09T03:28:40;101466.03;;;20.64;100.00
50434;BME280;36361;38.954;-9.002;2023-05-09T03:29:40;101466.59;;;20.66;100.00
50434;BME280;36361;38.954;-9.002;2023-05-09T03:30:41;101474.56;;;20.58;100.00
50434;BME280;36361;38.954;-9.002;2023-05-09T03:31:46;101472.88;;;20.57;100.00
50434;BME280;36361;38.954;-9.002;2023-05-09T03:32:46;101465.47;;;20.62;100.00
50434;BME280;36361;38.954;-9.002;2023-05-09T03:33:47;101475.38;;;20.85;100.00
50434;BME280;36361;38.954;-9.002;2023-05-09T03:34:49;101473.28;;;20.70;100.00
50434;BME280;36361;38.954;-9.002;2023-05-09T03:35:50;101476.16;;;20.49;100.00
50434;BME280;36361;38.954;-9.002;2023-05-09T03:36:52;101462.88;;;20.51;100.00
50434;BME280;36361;38.954;-9.002;2023-05-09T03:37:53;101474.16;;;20.44;100.00
50434;BME280;36361;38.954;-9.002;2023-05-09T03:38:53;101475.41;;;20.58;100.00
50434;BME280;36361;38.954;-9.002;2023-05-09T03:39:59;101475.41;;;20.58;100.00
50434;BME280;36361;38.954;-9.002;2023-05-09T03:41:01;101471.72;;;20.26;100.00
50434;BME280;36361;38.954;-9.002;2023-05-09T03:42:02;101464.31;;;20.04;100.00
50434;BME280;36361;38.954;-9.002;2023-05-09T03:43:02;101470.41;;;20.06;100.00
50434;BME280;36361;38.954;-9.002;2023-05-09T03:44:03;101484.50;;;19.83;100.00
50434;BME280;36361;38.954;-9.002;2023-05-09T03:45:06;101475.19;;;19.67;100.00
50434;BME280;36361;38.954;-9.002;2023-05-09T03:46:07;101475.38;;;20.04;100.00
50434;BME280;36361;38.954;-9.002;2023-05-09T03:47:08;101471.97;;;20.46;100.00
50434;BME280;36361;38.954;-9.002;2023-05-09T03:48:12;101483.44;;;20.38;100.00
50434;BME280;36361;38.954;-9.002;2023-05-09T03:49:18;101471.09;;;20.18;100.00
50434;BME280;36361;38.954;-9.002;2023-05-09T03:50:21;101484.56;;;20.37;100.00
50434;BME280;36361;38.954;-9.002;2023-05-09T03:51:23;101475.69;;;20.08;100.00
50434;BME280;36361;38.954;-9.002;2023-05-09T03:52:24;101472.09;;;20.07;100.00
50434;BME280;36361;38.954;-9.002;2023-05-09T03:53:25;101480.81;;;19.99;100.00
50434;BME280;36361;38.954;-9.002;2023-05-09T03:54:27;101473.75;;;20.08;100.00
50434;BME280;36361;38.954;-9.002;2023-05-09T03:55:28;101482.09;;;20.13;100.00
50434;BME280;36361;38.954;-9.002;2023-05-09T03:56:29;101476.66;;;19.75;100.00
50434;BME280;36361;38.954;-9.002;2023-05-09T03:57:30;101476.13;;;20.22;100.00
50434;BME280;36361;38.954;-9.002;2023-05-09T03:58:31;101479.22;;;20.03;100.00
50434;BME280;36361;38.954;-9.002;2023-05-09T03:59:33;101477.22;;;19.99;100.00
50434;BME280;36361;38.954;-9.002;2023-05-09T04:00:34;101476.66;;;19.75;100.00
50434;BME280;36361;38.954;-9.002;2023-05-09T04:01:42;101471.41;;;19.95;100.00
50434;BME280;36361;38.954;-9.002;2023-05-09T04:02:44;101470.00;;;19.71;100.00
50434;BME280;36361;38.954;-9.002;2023-05-09T04:03:54;101479.31;;;19.86;100.00
50434;BME280;36361;38.954;-9.002;2023-05-09T04:04:59;101480.84;;;19.77;100.00
50434;BME280;36361;38.954;-9.002;2023-05-09T04:06:00;101476.66;;;19.75;100.00
50434;BME280;36361;38.954;-9.002;2023-05-09T04:07:06;101486.56;;;19.71;100.00
50434;BME280;36361;38.954;-9.002;2023-05-09T04:08:06;101474.88;;;19.64;100.00
50434;BME280;36361;38.954;-9.002;2023-05-09T04:09:07;101486.03;;;19.74;100.00
50434;BME280;36361;38.954;-9.002;2023-05-09T04:10:09;101485.41;;;19.67;100.00
50434;BME280;36361;38.954;-9.002;2023-05-09T04:11:10;101478.13;;;20.04;100.00
50434;BME280;36361;38.954;-9.002;2023-05-09T04:12:13;101464.09;;;20.11;100.00
50434;BME280;36361;38.954;-9.002;2023-05-09T04:13:13;101471.50;;;20.05;100.00
50434;BME280;36361;38.954;-9.002;2023-05-09T04:14:17;101473.28;;;19.68;100.00
50434;BME280;36361;38.954;-9.002;2023-05-09T04:15:19;101469.47;;;19.74;100.00
50434;BME280;36361;38.954;-9.002;2023-05-09T04:16:20;101472.72;;;19.93;100.00
50434;BME280;36361;38.954;-9.002;2023-05-09T04:17:20;101470.03;;;19.98;100.00
50434;BME280;36361;38.954;-9.002;2023-05-09T04:18:21;101468.56;;;19.90;100.00
50434;BME280;36361;38.954;-9.002;2023-05-09T04:19:22;101467.19;;;20.14;100.00
50434;BME280;36361;38.954;-9.002;2023-05-09T04:20:23;101471.09;;;20.18;100.00
50434;BME280;36361;38.954;-9.002;2023-05-09T04:21:23;101471.81;;;20.09;100.00
50434;BME280;36361;38.954;-9.002;2023-05-09T04:22:27;101470.34;;;20.01;100.00
50434;BME280;36361;38.954;-9.002;2023-05-09T04:23:28;101466.34;;;19.87;100.00
50434;BME280;36361;38.954;-9.002;2023-05-09T04:24:31;101468.56;;;19.90;100.00
50434;BME280;36361;38.954;-9.002;2023-05-09T04:25:32;101458.69;;;19.94;100.00
50434;BME280;36361;38.954;-9.002;2023-05-09T04:26:35;101464.59;;;19.81;100.00
50434;BME280;36361;38.954;-9.002;2023-05-09T04:27:39;101463.41;;;19.99;100.00
50434;BME280;36361;38.954;-9.002;2023-05-09T04:28:40;101456.19;;;20.20;100.00
50434;BME280;36361;38.954;-9.002;2023-05-09T04:29:42;101456.41;;;20.13;100.00
50434;BME280;36361;38.954;-9.002;2023-05-09T04:30:43;101467.75;;;20.16;100.00
50434;BME280;36361;38.954;-9.002;2023-05-09T04:31:44;101469.50;;;20.23;100.00
50434;BME280;36361;38.954;-9.002;2023-05-09T04:32:46;101458.81;;;20.31;100.00
50434;BME280;36361;38.954;-9.002;2023-05-09T04:33:48;101456.91;;;20.37;100.00
50434;BME280;36361;38.954;-9.002;2023-05-09T04:34:49;101456.25;;;20.25;100.00
50434;BME280;36361;38.954;-9.002;2023-05-09T04:35:54;101447.31;;;20.17;100.00
50434;BME280;36361;38.954;-9.002;2023-05-09T04:36:55;101459.69;;;20.64;100.00
50434;BME280;36361;38.954;-9.002;2023-05-09T04:37:56;101455.69;;;20.23;100.00
50434;BME280;36361;38.954;-9.002;2023-05-09T04:38:56;101448.59;;;20.59;100.00
50434;BME280;36361;38.954;-9.002;2023-05-09T04:39:59;101440.63;;;20.67;100.00
50434;BME280;36361;38.954;-9.002;2023-05-09T04:41:09;101444.38;;;20.56;100.00
50434;BME280;36361;38.954;-9.002;2023-05-09T04:42:10;101440.16;;;20.43;100.00
50434;BME280;36361;38.954;-9.002;2023-05-09T04:43:11;101432.94;;;20.15;100.00
50434;BME280;36361;38.954;-9.002;2023-05-09T04:44:15;101441.44;;;20.09;100.00
50434;BME280;36361;38.954;-9.002;2023-05-09T04:45:16;101433.41;;;20.34;100.00
50434;BME280;36361;38.954;-9.002;2023-05-09T04:46:20;101431.06;;;19.94;100.00
50434;BME280;36361;38.954;-9.002;2023-05-09T04:47:21;101436.44;;;20.06;100.00
50434;BME280;36361;38.954;-9.002;2023-05-09T04:48:22;101437.28;;;20.11;100.00
50434;BME280;36361;38.954;-9.002;2023-05-09T04:49:23;101430.91;;;19.84;100.00
50434;BME280;36361;38.954;-9.002;2023-05-09T04:50:24;101436.59;;;19.94;100.00
50434;BME280;36361;38.954;-9.002;2023-05-09T04:51:25;101432.53;;;19.80;100.00
50434;BME280;36361;38.954;-9.002;2023-05-09T04:52:25;101437.03;;;19.86;100.00
50434;BME280;36361;38.954;-9.002;2023-05-09T04:53:26;101437.72;;;19.98;100.00
50434;BME280;36361;38.954;-9.002;2023-05-09T04:54:28;101429.25;;;19.39;100.00
50434;BME280;36361;38.954;-9.002;2023-05-09T04:55:29;101432.72;;;19.51;100.00
50434;BME280;36361;38.954;-9.002;2023-05-09T04:56:30;101439.75;;;19.59;100.00
50434;BME280;36361;38.954;-9.002;2023-05-09T04:57:32;101435.41;;;19.46;100.00
50434;BME280;36361;38.954;-9.002;2023-05-09T04:58:33;101427.53;;;19.77;100.00
50434;BME280;36361;38.954;-9.002;2023-05-09T04:59:39;101429.03;;;19.84;100.00
50434;BME280;36361;38.954;-9.002;2023-05-09T05:00:40;101423.63;;;19.73;100.00
50434;BME280;36361;38.954;-9.002;2023-05-09T05:01:42;101426.56;;;19.88;100.00
50434;BME280;36361;38.954;-9.002;2023-05-09T05:02:43;101432.19;;;19.98;100.00
50434;BME280;36361;38.954;-9.002;2023-05-09T05:03:44;101418.44;;;20.03;100.00
50434;BME280;36361;38.954;-9.002;2023-05-09T05:04:45;101420.69;;;20.06;100.00
50434;BME280;36361;38.954;-9.002;2023-05-09T05:05:47;101418.94;;;20.27;100.00
50434;BME280;36361;38.954;-9.002;2023-05-09T05:06:48;101427.31;;;20.05;100.00
50434;BME280;36361;38.954;-9.002;2023-05-09T05:07:48;101426.66;;;19.98;100.00
50434;BME280;36361;38.954;-9.002;2023-05-09T05:08:54;101427.03;;;20.61;100.00
50434;BME280;36361;38.954;-9.002;2023-05-09T05:09:55;101437.00;;;20.08;100.00
50434;BME280;36361;38.954;-9.002;2023-05-09T05:10:56;101425.72;;;19.87;100.00
50434;BME280;36361;38.954;-9.002;2023-05-09T05:11:57;101422.78;;;19.94;100.00
50434;BME280;36361;38.954;-9.002;2023-05-09T05:12:58;101422.66;;;20.11;100.00
50434;BME280;36361;38.954;-9.002;2023-05-09T05:13:58;101422.91;;;20.09;100.00
50434;BME280;36361;38.954;-9.002;2023-05-09T05:15:00;101431.47;;;20.35;100.00
50434;BME280;36361;38.954;-9.002;2023-05-09T05:16:00;101424.28;;;19.58;100.00
50434;BME280;36361;38.954;-9.002;2023-05-09T05:17:04;101429.25;;;19.83;100.00
50434;BME280;36361;38.954;-9.002;2023-05-09T05:18:06;101437.22;;;19.79;100.00
50434;BME280;36361;38.954;-9.002;2023-05-09T05:19:11;101430.25;;;19.99;100.00
50434;BME280;36361;38.954;-9.002;2023-05-09T05:20:13;101432.94;;;20.15;100.00
50434;BME280;36361;38.954;-9.002;2023-05-09T05:21:18;101439.69;;;19.76;100.00
50434;BME280;36361;38.954;-9.002;2023-05-09T05:22:19;101433.97;;;19.22;100.00
50434;BME280;36361;38.954;-9.002;2023-05-09T05:23:20;101444.38;;;18.81;100.00
50434;BME280;36361;38.954;-9.002;2023-05-09T05:24:23;101441.41;;;19.60;100.00
50434;BME280;36361;38.954;-9.002;2023-05-09T05:25:24;101440.84;;;20.07;100.00
50434;BME280;36361;38.954;-9.002;2023-05-09T05:26:26;101443.78;;;20.22;100.00
50434;BME280;36361;38.954;-9.002;2023-05-09T05:27:33;101445.00;;;20.36;100.00
50434;BME280;36361;38.954;-9.002;2023-05-09T05:28:34;101448.25;;;20.55;100.00